createdAt,value
2022-12-28T00:01:14.051Z,10.88
2022-12-28T00:03:41.575Z,14.88
2022-12-28T00:06:09.363Z,11.57
2022-12-28T00:08:36.725Z,10.40
2022-12-28T00:11:11.281Z,11.18
2022-12-28T00:13:40.370Z,9.32
2022-12-28T00:16:09.026Z,9.10
2022-12-28T00:18:36.820Z,11.05
2022-12-28T00:21:05.355Z,12.45
2022-12-28T00:23:32.249Z,9.98
2022-12-28T00:26:08.201Z,10.23
2022-12-28T00:28:35.302Z,13.05
2022-12-28T00:31:02.119Z,10.30
2022-12-28T00:33:29.610Z,15.82
2022-12-28T00:35:58.724Z,9.50
2022-12-28T00:38:26.003Z,14.70
2022-12-28T00:40:53.287Z,8.02
2022-12-28T00:43:21.605Z,11.80
2022-12-28T00:45:49.305Z,12.02
2022-12-28T00:48:16.683Z,11.23
2022-12-28T00:50:44.210Z,13.43
2022-12-28T00:53:12.058Z,14.85
2022-12-28T00:55:39.015Z,6.55
2022-12-28T00:58:07.133Z,12.95
2022-12-28T01:00:36.521Z,14.43
2022-12-28T01:03:03.814Z,12.35
2022-12-28T01:05:30.825Z,12.02
2022-12-28T01:07:57.787Z,11.45
2022-12-28T01:10:24.621Z,14.32
2022-12-28T01:12:51.505Z,11.18
2022-12-28T01:15:19.657Z,9.57
2022-12-28T01:17:48.887Z,9.32
2022-12-28T01:20:15.637Z,11.10
2022-12-28T01:22:42.340Z,11.95
2022-12-28T01:25:09.551Z,12.82
2022-12-28T01:27:36.368Z,17.65
2022-12-28T01:30:03.099Z,15.98
2022-12-28T01:32:30.059Z,16.17
2022-12-28T01:34:58.261Z,12.10
2022-12-28T01:37:25.096Z,13.10
2022-12-28T01:39:51.966Z,13.25
2022-12-28T01:42:22.453Z,11.32
2022-12-28T01:44:50.783Z,12.50
2022-12-28T01:47:23.912Z,19.17
2022-12-28T01:50:02.910Z,12.68
2022-12-28T01:52:35.751Z,16.48
2022-12-28T01:55:08.171Z,17.83
2022-12-28T01:57:41.660Z,12.52
2022-12-28T02:00:11.669Z,11.82
2022-12-28T02:02:42.944Z,12.93
2022-12-28T02:07:50.677Z,15.25
2022-12-28T02:10:44.411Z,12.75
2022-12-28T02:13:06.298Z,12.52
2022-12-28T02:15:35.402Z,16.08
2022-12-28T02:18:03.316Z,16.17
2022-12-28T02:20:38.640Z,14.68
2022-12-28T02:23:38.327Z,13.18
2022-12-28T02:26:31.449Z,13.25
2022-12-28T02:29:14.487Z,18.15
2022-12-28T02:31:48.182Z,15.30
2022-12-28T02:34:21.882Z,11.93
2022-12-28T02:36:55.634Z,10.82
2022-12-28T02:39:31.388Z,11.57
2022-12-28T02:41:59.902Z,16.60
2022-12-28T02:44:28.044Z,13.52
2022-12-28T02:46:54.793Z,11.52
2022-12-28T02:49:23.537Z,19.73
2022-12-28T02:52:02.331Z,18.85
2022-12-28T02:54:52.593Z,14.00
2022-12-28T02:57:32.417Z,14.20
2022-12-28T03:00:06.363Z,15.23
2022-12-28T03:02:46.739Z,18.73
2022-12-28T03:05:19.592Z,19.63
2022-12-28T03:07:57.844Z,23.33
2022-12-28T03:10:29.109Z,14.05
2022-12-28T03:13:00.387Z,12.30
2022-12-28T03:18:02.816Z,14.85
2022-12-28T03:20:31.790Z,17.92
2022-12-28T03:23:00.683Z,13.57
2022-12-28T03:25:35.034Z,19.02
2022-12-28T03:28:07.625Z,16.20
2022-12-28T03:30:39.791Z,14.93
2022-12-28T03:33:13.683Z,16.73
2022-12-28T03:35:50.990Z,15.95
2022-12-28T03:38:24.818Z,15.07
2022-12-28T03:41:04.723Z,14.30
2022-12-28T03:43:45.367Z,13.93
2022-12-28T03:46:27.659Z,13.83
2022-12-28T03:48:56.542Z,14.65
2022-12-28T03:51:29.496Z,14.85
2022-12-28T03:53:57.824Z,15.45
2022-12-28T03:56:29.036Z,15.20
2022-12-28T03:59:00.842Z,15.25
2022-12-28T04:01:29.233Z,16.70
2022-12-28T04:03:56.222Z,17.35
2022-12-28T04:06:25.980Z,16.60
2022-12-28T04:08:52.828Z,16.85
2022-12-28T04:11:19.660Z,18.67
2022-12-28T04:13:47.054Z,18.45
2022-12-28T04:16:16.683Z,17.33
2022-12-28T04:18:45.449Z,15.60
2022-12-28T04:21:14.188Z,17.05
2022-12-28T04:23:43.148Z,17.08
2022-12-28T04:26:12.004Z,18.80
2022-12-28T04:28:39.282Z,20.50
2022-12-28T04:31:09.436Z,23.05
2022-12-28T04:33:37.518Z,21.15
2022-12-28T04:36:07.387Z,22.42
2022-12-28T04:38:35.634Z,20.63
2022-12-28T04:41:03.138Z,23.70
2022-12-28T04:43:35.288Z,21.73
2022-12-28T04:46:04.480Z,28.67
2022-12-28T04:48:36.927Z,21.38
2022-12-28T04:51:08.949Z,26.02
2022-12-28T04:53:39.086Z,23.65
2022-12-28T04:56:07.520Z,24.60
2022-12-28T04:58:55.483Z,21.38
2022-12-28T05:01:22.692Z,25.65
2022-12-28T05:03:55.817Z,21.80
2022-12-28T05:06:28.457Z,20.98
2022-12-28T05:08:57.236Z,23.95
2022-12-28T05:11:26.851Z,23.77
2022-12-28T05:13:58.968Z,20.98
2022-12-28T05:16:30.624Z,24.38
2022-12-28T05:18:57.813Z,23.73
2022-12-28T05:21:28.124Z,23.10
2022-12-28T05:23:55.672Z,21.80
2022-12-28T05:26:24.716Z,20.90
2022-12-28T05:28:52.828Z,20.52
2022-12-28T05:31:22.039Z,21.73
2022-12-28T05:33:49.886Z,21.55
2022-12-28T05:36:18.442Z,22.25
2022-12-28T05:39:01.693Z,23.23
2022-12-28T05:41:32.053Z,20.30
2022-12-28T05:44:07.027Z,24.67
2022-12-28T05:46:37.650Z,20.33
2022-12-28T05:49:04.422Z,18.15
2022-12-28T05:51:35.215Z,20.23
2022-12-28T05:54:03.920Z,18.65
2022-12-28T05:56:31.666Z,23.08
2022-12-28T05:59:01.029Z,21.20
2022-12-28T06:01:30.168Z,16.80
2022-12-28T06:03:59.544Z,17.90
2022-12-28T06:06:28.845Z,20.95
2022-12-28T06:08:56.036Z,18.70
2022-12-28T06:11:28.092Z,18.48
2022-12-28T06:13:55.896Z,17.63
2022-12-28T06:16:25.283Z,21.27
2022-12-28T06:18:54.794Z,16.08
2022-12-28T06:21:23.185Z,18.05
2022-12-28T06:23:50.581Z,16.38
2022-12-28T06:26:20.102Z,17.17
2022-12-28T06:28:50.310Z,15.50
2022-12-28T06:31:19.007Z,17.63
2022-12-28T06:33:48.475Z,18.60
2022-12-28T06:36:20.691Z,17.83
2022-12-28T06:38:50.585Z,17.75
2022-12-28T06:41:19.656Z,18.30
2022-12-28T06:43:48.700Z,17.35
2022-12-28T06:46:17.351Z,17.77
2022-12-28T06:48:44.746Z,19.08
2022-12-28T06:51:15.402Z,22.40
2022-12-28T06:56:46.744Z,20.58
2022-12-28T06:59:15.092Z,18.48
2022-12-28T07:01:42.209Z,20.75
2022-12-28T07:04:10.053Z,19.08
2022-12-28T07:06:39.071Z,19.85
2022-12-28T07:09:07.617Z,21.05
2022-12-28T07:11:34.805Z,23.55
2022-12-28T07:14:02.272Z,25.35
2022-12-28T07:19:03.018Z,22.42
2022-12-28T07:21:31.939Z,25.02
2022-12-28T07:23:58.647Z,21.83
2022-12-28T07:26:27.841Z,15.40
2022-12-28T07:28:57.499Z,16.27
2022-12-28T07:31:26.182Z,23.48
2022-12-28T07:33:58.512Z,20.58
2022-12-28T07:36:26.505Z,20.02
2022-12-28T07:38:55.256Z,20.10
2022-12-28T07:41:27.688Z,12.05
2022-12-28T07:43:55.322Z,15.27
2022-12-28T07:46:33.417Z,21.02
2022-12-28T07:49:01.951Z,14.75
2022-12-28T07:51:31.812Z,16.17
2022-12-28T07:54:01.977Z,13.57
2022-12-28T07:56:30.089Z,15.48
2022-12-28T07:58:59.022Z,15.50
2022-12-28T08:01:28.622Z,16.85
2022-12-28T08:03:58.185Z,15.63
2022-12-28T08:06:28.089Z,22.63
2022-12-28T08:09:00.365Z,19.83
2022-12-28T08:11:32.113Z,21.40
2022-12-28T08:14:02.437Z,15.00
2022-12-28T08:16:38.099Z,15.35
2022-12-28T08:19:05.574Z,15.63
2022-12-28T08:21:39.256Z,14.15
2022-12-28T08:24:07.393Z,12.60
2022-12-28T08:26:38.425Z,13.50
2022-12-28T08:29:07.964Z,11.90
2022-12-28T08:31:37.290Z,12.48
2022-12-28T08:34:05.899Z,11.02
2022-12-28T08:36:36.985Z,11.30
2022-12-28T08:39:04.650Z,11.00
2022-12-28T08:41:31.874Z,11.90
2022-12-28T08:43:59.262Z,11.00
2022-12-28T08:46:27.872Z,9.32
2022-12-28T08:48:56.227Z,8.77
2022-12-28T08:51:26.270Z,9.95
2022-12-28T08:53:54.477Z,9.30
2022-12-28T08:56:23.467Z,8.60
2022-12-28T08:58:51.023Z,7.90
2022-12-28T09:01:21.487Z,8.23
2022-12-28T09:03:49.894Z,8.80
2022-12-28T09:06:18.447Z,8.05
2022-12-28T09:09:04.850Z,9.13
2022-12-28T09:11:34.023Z,10.15
2022-12-28T09:14:01.459Z,9.75
2022-12-28T09:16:29.381Z,10.65
2022-12-28T09:18:57.663Z,10.23
2022-12-28T09:21:26.460Z,11.20
2022-12-28T09:23:54.273Z,10.20
2022-12-28T09:26:30.579Z,10.90
2022-12-28T09:29:00.681Z,11.20
2022-12-28T09:31:29.875Z,11.27
2022-12-28T09:36:48.199Z,8.50
2022-12-28T09:39:17.525Z,7.47
2022-12-28T09:41:51.281Z,6.10
2022-12-28T09:44:33.815Z,6.05
2022-12-28T09:47:05.323Z,6.20
2022-12-28T09:49:42.516Z,6.63
2022-12-28T09:52:27.021Z,9.80
2022-12-28T09:54:54.841Z,7.80
2022-12-28T09:57:23.802Z,9.05
2022-12-28T09:59:53.774Z,8.68
2022-12-28T10:02:30.082Z,9.43
2022-12-28T10:04:57.168Z,10.60
2022-12-28T10:07:24.263Z,11.85
2022-12-28T10:09:51.466Z,13.27
2022-12-28T10:12:27.575Z,14.90
2022-12-28T10:14:56.489Z,18.92
2022-12-28T10:17:28.068Z,19.92
2022-12-28T10:19:58.683Z,23.70
2022-12-28T10:22:30.292Z,21.75
2022-12-28T10:24:57.035Z,22.50
2022-12-28T10:27:32.923Z,21.10
2022-12-28T10:30:06.529Z,25.05
2022-12-28T10:32:49.382Z,25.65
2022-12-28T10:35:26.181Z,23.33
2022-12-28T10:38:02.373Z,23.67
2022-12-28T10:40:32.061Z,24.73
2022-12-28T10:43:01.204Z,25.17
2022-12-28T10:45:36.733Z,21.95
2022-12-28T10:48:10.074Z,19.30
2022-12-28T10:50:40.447Z,18.63
2022-12-28T10:53:20.613Z,17.80
2022-12-28T10:55:47.411Z,17.73
2022-12-28T10:58:33.372Z,18.67
2022-12-28T11:01:06.772Z,19.30
2022-12-28T11:03:36.579Z,17.02
2022-12-28T11:06:15.458Z,18.77
2022-12-28T11:08:47.012Z,17.23
2022-12-28T11:11:24.155Z,15.88
2022-12-28T11:13:55.668Z,13.63
2022-12-28T11:16:23.766Z,14.93
2022-12-28T11:18:50.746Z,16.08
2022-12-28T11:21:21.739Z,13.65
2022-12-28T11:23:50.805Z,13.00
2022-12-28T11:26:18.353Z,14.70
2022-12-28T11:28:48.361Z,14.52
2022-12-28T11:31:25.279Z,12.98
2022-12-28T11:33:55.030Z,12.00
2022-12-28T11:36:25.100Z,11.27
2022-12-28T11:38:54.386Z,12.45
2022-12-28T11:42:19.350Z,9.93
2022-12-28T11:44:53.722Z,10.43
2022-12-28T11:47:28.551Z,10.13
2022-12-28T11:49:55.559Z,10.30
2022-12-28T11:52:46.213Z,10.65
2022-12-28T11:55:52.478Z,7.75
2022-12-28T11:58:48.851Z,11.93
2022-12-28T12:01:41.523Z,12.10
2022-12-28T12:04:18.362Z,12.27
2022-12-28T12:07:07.733Z,11.88
2022-12-28T12:09:43.583Z,11.30
2022-12-28T12:12:38.436Z,11.73
2022-12-28T12:15:12.151Z,12.60
2022-12-28T12:17:45.035Z,11.73
2022-12-28T12:20:24.701Z,11.75
2022-12-28T12:22:57.030Z,12.20
2022-12-28T12:25:27.100Z,9.90
2022-12-28T12:27:57.308Z,11.20
2022-12-28T12:30:25.406Z,10.43
2022-12-28T12:32:55.509Z,10.73
2022-12-28T12:35:26.257Z,10.00
2022-12-28T12:37:56.351Z,9.13
2022-12-28T12:40:55.032Z,9.00
2022-12-28T12:43:29.353Z,7.97
2022-12-28T12:46:08.482Z,7.90
2022-12-28T12:48:56.898Z,7.68
2022-12-28T12:51:33.508Z,7.55
2022-12-28T12:54:18.111Z,7.80
2022-12-28T12:56:51.982Z,7.35
2022-12-28T12:59:50.931Z,7.18
2022-12-28T13:02:35.669Z,6.38
2022-12-28T13:05:04.519Z,6.88
2022-12-28T13:07:33.986Z,6.85
2022-12-28T13:10:05.357Z,7.15
2022-12-28T13:15:01.256Z,7.05
2022-12-28T13:17:28.843Z,6.15
2022-12-28T13:20:09.999Z,7.03
2022-12-28T13:22:42.558Z,5.22
2022-12-28T13:25:23.689Z,5.32
2022-12-28T13:27:50.745Z,5.32
2022-12-28T13:30:22.254Z,5.53
2022-12-28T13:32:53.926Z,5.35
2022-12-28T13:35:24.848Z,4.50
2022-12-28T13:38:04.619Z,7.78
2022-12-28T13:40:34.109Z,7.30
2022-12-28T13:43:29.773Z,5.25
2022-12-28T13:46:01.054Z,4.43
2022-12-28T13:50:56.319Z,6.30
2022-12-28T13:53:29.222Z,4.45
2022-12-28T13:56:17.885Z,4.63
2022-12-28T13:58:51.129Z,4.93
2022-12-28T14:01:21.693Z,4.13
2022-12-28T14:03:50.258Z,5.70
2022-12-28T14:06:18.938Z,10.38
2022-12-28T14:08:47.988Z,7.03
2022-12-28T14:11:17.007Z,5.15
2022-12-28T14:13:45.831Z,5.43
2022-12-28T14:16:13.017Z,7.15
2022-12-28T14:18:40.349Z,11.98
2022-12-28T14:21:07.292Z,7.85
2022-12-28T14:23:37.256Z,7.95
2022-12-28T14:26:07.907Z,8.23
2022-12-28T14:28:40.636Z,11.65
2022-12-28T14:31:08.993Z,11.40
2022-12-28T14:33:49.564Z,8.00
2022-12-28T14:36:21.050Z,12.00
2022-12-28T14:38:50.771Z,11.48
2022-12-28T14:41:22.577Z,9.40
2022-12-28T14:43:53.834Z,9.80
2022-12-28T14:46:30.045Z,7.70
2022-12-28T14:49:00.414Z,5.97
2022-12-28T14:51:30.427Z,9.50
2022-12-28T14:54:20.812Z,15.50
2022-12-28T14:56:53.710Z,8.75
2022-12-28T14:59:27.167Z,11.82
2022-12-28T15:01:54.306Z,9.95
2022-12-28T15:04:34.460Z,12.57
2022-12-28T15:07:01.623Z,11.23
2022-12-28T15:09:28.303Z,10.27
2022-12-28T15:12:10.747Z,11.77
2022-12-28T15:14:38.046Z,8.40
2022-12-28T15:17:05.305Z,12.85
2022-12-28T15:19:32.155Z,8.40
2022-12-28T15:21:58.898Z,10.93
2022-12-28T15:24:31.886Z,16.10
2022-12-28T15:27:00.763Z,14.57
2022-12-28T15:32:16.027Z,12.00
2022-12-28T15:34:42.971Z,15.13
2022-12-28T15:37:10.019Z,17.25
2022-12-28T15:39:36.741Z,12.48
2022-12-28T15:42:05.345Z,13.85
2022-12-28T15:44:36.621Z,11.00
2022-12-28T15:49:30.203Z,12.13
2022-12-28T15:51:56.961Z,14.55
2022-12-28T15:54:23.626Z,12.70
2022-12-28T15:56:52.620Z,13.57
2022-12-28T15:59:19.834Z,13.23
2022-12-28T16:01:48.136Z,15.52
2022-12-28T16:04:15.276Z,15.30
2022-12-28T16:06:46.302Z,11.18
2022-12-28T16:09:23.033Z,18.95
2022-12-28T16:11:55.049Z,13.65
2022-12-28T16:14:22.098Z,12.65
2022-12-28T16:17:09.126Z,8.40
2022-12-28T16:19:39.287Z,9.18
2022-12-28T16:22:06.142Z,8.45
2022-12-28T16:24:33.180Z,14.30
2022-12-28T16:26:59.863Z,14.82
2022-12-28T16:29:36.419Z,15.00
2022-12-28T16:32:09.033Z,11.15
2022-12-28T16:35:02.280Z,17.90
2022-12-28T16:37:35.245Z,15.63
2022-12-28T16:40:02.769Z,19.05
2022-12-28T16:42:29.535Z,13.27
2022-12-28T16:44:56.231Z,12.45
2022-12-28T16:47:24.334Z,13.25
2022-12-28T16:49:53.378Z,17.92
2022-12-28T16:57:53.322Z,10.13
2022-12-28T17:00:33.880Z,11.30
2022-12-28T17:03:16.782Z,12.25
2022-12-28T17:05:43.777Z,10.95
2022-12-28T17:08:12.071Z,12.07
2022-12-28T17:10:58.044Z,14.25
2022-12-28T17:16:29.981Z,14.23
2022-12-28T17:18:59.261Z,9.98
2022-12-28T17:21:26.555Z,12.77
2022-12-28T17:23:53.765Z,24.33
2022-12-28T17:26:20.542Z,14.10
2022-12-28T17:28:47.308Z,10.80
2022-12-28T17:31:16.709Z,11.77
2022-12-28T17:33:46.114Z,13.90
2022-12-28T17:36:14.952Z,11.50
2022-12-28T17:38:42.054Z,10.65
2022-12-28T17:41:10.721Z,9.93
2022-12-28T17:43:37.981Z,13.23
2022-12-28T17:46:05.575Z,11.32
2022-12-28T17:48:32.627Z,7.53
2022-12-28T17:50:59.442Z,10.32
2022-12-28T17:53:29.651Z,6.47
2022-12-28T17:56:00.263Z,6.78
2022-12-28T17:58:26.961Z,8.35
2022-12-28T18:00:53.827Z,10.45
2022-12-28T18:03:20.746Z,8.85
2022-12-28T18:05:47.898Z,12.07
2022-12-28T18:08:14.617Z,11.43
2022-12-28T18:10:43.504Z,9.45
2022-12-28T18:13:10.915Z,8.75
2022-12-28T18:15:40.801Z,9.20
2022-12-28T18:18:08.085Z,10.45
2022-12-28T18:20:34.889Z,9.65
2022-12-28T18:23:01.837Z,6.97
2022-12-28T18:25:30.218Z,9.55
2022-12-28T18:27:58.941Z,9.45
2022-12-28T18:30:25.863Z,9.40
2022-12-28T18:32:52.708Z,10.43
2022-12-28T18:35:19.566Z,8.23
2022-12-28T18:37:46.441Z,8.23
2022-12-28T18:40:13.377Z,10.48
2022-12-28T18:42:40.236Z,10.10
2022-12-28T18:45:09.611Z,6.30
2022-12-28T18:47:36.464Z,9.15
2022-12-28T18:50:03.796Z,8.10
2022-12-28T18:52:30.518Z,7.97
2022-12-28T18:54:57.351Z,8.80
2022-12-28T18:57:24.179Z,12.40
2022-12-28T18:59:50.947Z,8.90
2022-12-28T19:02:20.020Z,10.65
2022-12-28T19:04:47.047Z,9.07
2022-12-28T19:07:13.863Z,12.93
2022-12-28T19:09:40.661Z,7.20
2022-12-28T19:12:20.542Z,7.38
2022-12-28T19:14:55.492Z,6.70
2022-12-28T19:17:42.210Z,6.78
2022-12-28T19:20:14.628Z,9.35
2022-12-28T19:22:41.615Z,6.57
2022-12-28T19:25:08.978Z,6.43
2022-12-28T19:27:35.742Z,6.72
2022-12-28T19:30:02.506Z,6.35
2022-12-28T19:32:33.098Z,7.65
2022-12-28T19:35:04.364Z,7.63
2022-12-28T19:37:31.136Z,6.82
2022-12-28T19:39:58.220Z,6.82
2022-12-28T19:42:25.211Z,6.72
2022-12-28T19:44:54.069Z,7.05
2022-12-28T19:47:20.889Z,8.20
2022-12-28T19:49:53.013Z,7.50
2022-12-28T19:52:19.911Z,7.45
2022-12-28T19:54:46.955Z,9.40
2022-12-28T19:57:16.900Z,7.45
2022-12-28T19:59:43.673Z,6.78
2022-12-28T20:02:11.636Z,7.47
2022-12-28T20:04:38.673Z,7.80
2022-12-28T20:07:06.816Z,7.90
2022-12-28T20:09:33.673Z,7.28
2022-12-28T20:12:00.544Z,7.68
2022-12-28T20:14:27.373Z,9.40
2022-12-28T20:16:54.092Z,7.50
2022-12-28T20:19:21.000Z,6.95
2022-12-28T20:21:47.847Z,7.88
2022-12-28T20:24:16.106Z,6.78
2022-12-28T20:26:44.016Z,7.07
2022-12-28T20:29:13.660Z,7.70
2022-12-28T20:31:40.737Z,7.63
2022-12-28T20:34:07.828Z,7.18
2022-12-28T20:36:34.687Z,7.07
2022-12-28T20:39:01.984Z,7.03
2022-12-28T20:41:31.430Z,7.50
2022-12-28T20:44:01.608Z,7.70
2022-12-28T20:46:28.903Z,7.53
2022-12-28T20:48:56.073Z,9.02
2022-12-28T20:51:22.980Z,8.70
2022-12-28T20:53:49.891Z,9.00
2022-12-28T20:56:17.346Z,9.50
2022-12-28T20:58:46.095Z,9.50
2022-12-28T21:01:15.011Z,10.88
2022-12-28T21:03:42.633Z,9.93
2022-12-28T21:06:09.668Z,10.82
2022-12-28T21:08:36.784Z,11.40
2022-12-28T21:11:03.852Z,11.02
2022-12-28T21:13:30.699Z,10.50
2022-12-28T21:16:02.482Z,9.80
2022-12-28T21:18:29.339Z,12.02
2022-12-28T21:20:56.065Z,12.32
2022-12-28T21:23:22.967Z,11.70
2022-12-28T21:25:50.186Z,10.73
2022-12-28T21:28:17.110Z,11.40
2022-12-28T21:30:43.918Z,10.98
2022-12-28T21:33:12.135Z,10.95
2022-12-28T21:35:38.861Z,10.15
2022-12-28T21:38:05.649Z,9.93
2022-12-28T21:40:32.503Z,9.35
2022-12-28T21:42:59.283Z,10.50
2022-12-28T21:45:26.140Z,9.25
2022-12-28T21:47:52.952Z,8.77
2022-12-28T21:50:21.504Z,9.80
2022-12-28T21:52:48.324Z,9.65
2022-12-28T21:55:15.272Z,8.35
2022-12-28T21:57:42.088Z,11.15
2022-12-28T22:00:11.321Z,8.55
2022-12-28T22:02:38.921Z,10.27
2022-12-28T22:05:06.627Z,10.30
2022-12-28T22:07:35.045Z,9.82
2022-12-28T22:10:01.827Z,9.88
2022-12-28T22:12:28.755Z,9.88
2022-12-28T22:14:55.439Z,9.88
2022-12-28T22:17:22.571Z,9.13
2022-12-28T22:19:49.417Z,9.40
2022-12-28T22:22:16.203Z,8.73
2022-12-28T22:24:44.530Z,9.15
2022-12-28T22:27:11.271Z,8.73
2022-12-28T22:29:38.301Z,9.52
2022-12-28T22:32:05.711Z,7.68
2022-12-28T22:34:34.171Z,7.82
2022-12-28T22:37:00.876Z,7.30
2022-12-28T22:39:27.648Z,7.57
2022-12-28T22:41:55.902Z,7.28
2022-12-28T22:44:22.702Z,6.82
2022-12-28T22:46:49.413Z,6.50
2022-12-28T22:49:22.039Z,6.68
2022-12-28T22:51:48.855Z,6.95
2022-12-28T22:54:15.561Z,6.20
2022-12-28T22:56:42.444Z,5.60
2022-12-28T22:59:15.781Z,5.78
2022-12-28T23:01:43.172Z,5.00
2022-12-28T23:04:10.033Z,5.40
2022-12-28T23:06:36.771Z,4.72
2022-12-28T23:09:03.851Z,5.00
2022-12-28T23:11:30.585Z,4.45
2022-12-28T23:14:09.478Z,5.13
2022-12-28T23:16:44.539Z,5.70
2022-12-28T23:19:15.962Z,5.78
2022-12-28T23:24:11.285Z,4.75
2022-12-28T23:26:38.260Z,5.13
2022-12-28T23:29:07.508Z,5.63
2022-12-28T23:31:38.227Z,5.10
2022-12-28T23:34:05.084Z,6.10
2022-12-28T23:36:32.996Z,6.32
2022-12-28T23:38:59.969Z,6.25
2022-12-28T23:41:26.787Z,6.30
2022-12-28T23:43:53.562Z,6.85
2022-12-28T23:46:23.604Z,6.75
2022-12-28T23:48:51.942Z,7.35
2022-12-28T23:51:18.850Z,7.38
2022-12-28T23:53:47.808Z,8.95
2022-12-28T23:56:14.605Z,7.32
2022-12-28T23:58:41.484Z,7.35
